Time;durP1;ratioP1;P1;durP2;ratioP2;P2;SDS_P1;SDS_P2;PMS_P1;PMS_P2;Temp;Humidity;BMP_temperature;BMP_pressure;BME280_temperature;BME280_humidity;BME280_pressure;Samples;Min_cycle;Max_cycle;Signal;HPM_P1;HPM_P2
2023/02/14 00:01:53;;;;;;;16.80;9.90;;;;;;;0.20;100.00;100125.45;105951;1255;68647;-57
2023/02/14 00:04:21;;;;;;;15.60;10.00;;;;;;;0.20;100.00;100122.87;105792;1257;74258;-56
2023/02/14 00:06:51;;;;;;;16.80;9.20;;;;;;;0.20;100.00;100118.77;105751;1255;61771;-56
2023/02/14 00:09:21;;;;;;;16.90;10.20;;;;;;;0.20;100.00;100117.07;106148;1256;60569;-58
2023/02/14 00:11:51;;;;;;;17.50;9.10;;;;;;;0.21;100.00;100115.30;105977;1255;75041;-57
2023/02/14 00:17:07;;;;;;;16.40;9.40;;;;;;;0.23;100.00;100100.10;106335;1255;74200;-58
2023/02/14 00:19:37;;;;;;;13.30;9.10;;;;;;;0.23;100.00;100097.46;105749;1264;61703;-57
2023/02/14 00:22:05;;;;;;;15.90;10.20;;;;;;;0.24;100.00;100087.16;105798;1251;61650;-57
2023/02/14 00:24:34;;;;;;;13.20;9.30;;;;;;;0.25;100.00;100078.05;105851;1251;75827;-56
2023/02/14 00:27:02;;;;;;;16.40;9.60;;;;;;;0.26;100.00;100064.81;105823;1254;67620;-59
2023/02/14 00:29:31;;;;;;;18.90;10.90;;;;;;;0.27;100.00;100062.71;105911;1254;73616;-56
2023/02/14 00:32:02;;;;;;;17.10;11.50;;;;;;;0.28;100.00;100051.52;105875;1256;62400;-56
2023/02/14 00:34:32;;;;;;;17.30;10.50;;;;;;;0.27;100.00;100039.97;105875;1262;60579;-56
2023/02/14 00:37:02;;;;;;;20.10;11.90;;;;;;;0.28;100.00;100037.84;105828;1255;75947;-56
2023/02/14 00:39:31;;;;;;;21.70;12.20;;;;;;;0.28;100.00;100030.14;105916;1254;68514;-56
2023/02/14 00:41:59;;;;;;;20.70;12.50;;;;;;;0.27;100.00;100028.37;105826;1255;74333;-55
2023/02/14 00:44:28;;;;;;;19.80;11.90;;;;;;;0.27;100.00;100018.30;105941;1251;62766;-55
2023/02/14 00:46:57;;;;;;;22.30;13.00;;;;;;;0.26;100.00;100015.09;105591;1255;61104;-55
2023/02/14 00:49:26;;;;;;;21.30;13.30;;;;;;;0.26;100.00;100011.17;106004;1255;74630;-56
2023/02/14 00:51:54;;;;;;;21.80;13.20;;;;;;;0.25;100.00;100002.35;105958;1252;68165;-55
2023/02/14 00:54:24;;;;;;;22.60;13.00;;;;;;;0.25;100.00;100000.30;105957;1255;73542;-58
2023/02/14 00:56:52;;;;;;;21.40;12.80;;;;;;;0.24;100.00;99991.13;106022;1254;61860;-55
2023/02/14 00:59:21;;;;;;;20.70;12.50;;;;;;;0.23;100.00;99984.91;105973;1256;60874;-57
2023/02/14 01:01:50;;;;;;;21.20;13.20;;;;;;;0.21;100.00;99980.90;105673;1255;75907;-57
2023/02/14 01:04:18;;;;;;;17.90;11.80;;;;;;;0.21;100.00;99976.85;106143;1257;67863;-60
2023/02/14 01:06:47;;;;;;;19.30;12.00;;;;;;;0.20;100.00;99974.23;106067;1256;73672;-56
2023/02/14 01:09:16;;;;;;;21.00;12.60;;;;;;;0.17;100.00;99966.54;105927;1251;61805;-55
2023/02/14 01:11:45;;;;;;;20.60;12.30;;;;;;;0.16;100.00;99962.77;105898;1255;61976;-55
2023/02/14 01:14:15;;;;;;;20.70;12.90;;;;;;;0.15;100.00;99958.68;106151;1254;74603;-56
2023/02/14 01:16:44;;;;;;;21.20;13.10;;;;;;;0.15;100.00;99960.06;106111;1255;67826;-57
2023/02/14 01:19:13;;;;;;;19.70;11.60;;;;;;;0.15;100.00;99955.82;105989;1264;74470;-60
2023/02/14 01:21:43;;;;;;;17.50;11.30;;;;;;;0.14;100.00;99947.83;105999;1256;60937;-57
2023/02/14 01:24:12;;;;;;;18.20;11.70;;;;;;;0.14;100.00;99945.45;105972;1251;62101;-56
2023/02/14 01:26:43;;;;;;;17.30;11.50;;;;;;;0.13;100.00;99942.13;106027;1262;75352;-56
2023/02/14 01:29:12;;;;;;;16.20;10.20;;;;;;;0.12;100.00;99941.02;106128;1255;68646;-56
2023/02/14 01:31:41;;;;;;;14.60;9.40;;;;;;;0.12;100.00;99933.35;106154;1254;74143;-57
2023/02/14 01:34:10;;;;;;;16.50;10.20;;;;;;;0.11;100.00;99927.39;106079;1253;61223;-60
2023/02/14 01:36:39;;;;;;;15.30;10.00;;;;;;;0.11;100.00;99922.49;105911;1251;60688;-58
2023/02/14 01:39:12;;;;;;;14.20;8.70;;;;;;;0.11;100.00;99915.96;105844;1254;75293;-57
2023/02/14 01:41:41;;;;;;;12.20;7.70;;;;;;;0.11;100.00;99914.61;106248;1255;68512;-59
2023/02/14 01:44:13;;;;;;;15.90;8.90;;;;;;;0.10;100.00;99906.14;105902;1254;74259;-57
2023/02/14 01:46:42;;;;;;;12.50;8.30;;;;;;;0.09;100.00;99902.80;105960;1254;62730;-56
2023/02/14 01:49:26;;;;;;;13.80;7.60;;;;;;;0.08;100.00;99897.42;105894;1251;61845;-56
2023/02/14 01:51:58;;;;;;;13.60;7.60;;;;;;;0.08;100.00;99889.41;105731;1254;74195;-55
2023/02/14 01:54:30;;;;;;;12.70;7.50;;;;;;;0.08;100.00;99889.27;105802;1262;67782;-55
2023/02/14 01:57:00;;;;;;;11.70;7.20;;;;;;;0.08;100.00;99876.61;106029;1254;73174;-56
2023/02/14 01:59:32;;;;;;;13.00;8.00;;;;;;;0.08;100.00;99872.54;106042;1255;62823;-59
2023/02/14 02:02:01;;;;;;;11.30;7.20;;;;;;;0.07;100.00;99870.35;106005;1256;61681;-57
2023/02/14 02:04:34;;;;;;;10.50;6.70;;;;;;;0.07;100.00;99870.02;106183;1254;75523;-57
2023/02/14 02:07:08;;;;;;;10.80;7.20;;;;;;;0.07;100.00;99864.59;105767;1257;68592;-56
2023/02/14 02:10:05;;;;;;;11.80;7.10;;;;;;;0.06;100.00;99860.55;106066;1254;74144;-57
2023/02/14 02:12:34;;;;;;;10.70;6.90;;;;;;;0.04;100.00;99854.18;105929;1254;61720;-56
2023/02/14 02:15:03;;;;;;;11.70;7.00;;;;;;;0.04;100.00;99853.20;106038;1254;60756;-60
2023/02/14 02:17:38;;;;;;;9.70;6.70;;;;;;;0.03;100.00;99854.95;105916;1255;75222;-56
2023/02/14 02:20:38;;;;;;;10.50;6.70;;;;;;;0.04;100.00;99851.33;106026;1254;67387;-56
2023/02/14 02:23:11;;;;;;;10.20;6.60;;;;;;;0.03;100.00;99850.86;105882;1256;73974;-56
2023/02/14 02:25:58;;;;;;;;;;;;;;;0.03;100.00;99853.23;105837;1255;61475;-56
2023/02/14 02:28:38;;;;;;;9.80;5.90;;;;;;;0.03;100.00;99849.02;105757;1254;60912;-59
2023/02/14 02:31:15;;;;;;;9.40;6.30;;;;;;;0.03;100.00;99846.12;106138;1254;75351;-57
2023/02/14 02:34:05;;;;;;;9.10;5.70;;;;;;;0.03;100.00;99840.13;105832;1256;68855;-55
2023/02/14 02:36:47;;;;;;;11.20;7.30;;;;;;;0.03;100.00;99833.41;105997;1262;72882;-56
2023/02/14 02:39:26;;;;;;;10.00;6.00;;;;;;;0.02;100.00;99826.33;105698;1254;62626;-56
2023/02/14 02:42:18;;;;;;;10.50;5.70;;;;;;;0.02;100.00;99816.42;105832;1256;60726;-56
2023/02/14 02:44:54;;;;;;;9.60;6.00;;;;;;;0.03;100.00;99813.98;105922;1254;75169;-56
2023/02/14 02:47:35;;;;;;;8.70;5.60;;;;;;;0.03;100.00;99808.22;105876;1257;67586;-57
2023/02/14 02:53:28;;;;;;;10.20;6.60;;;;;;;0.04;100.00;99795.24;105984;1251;62170;-56
2023/02/14 02:59:05;;;;;;;9.20;5.90;;;;;;;0.03;100.00;99792.61;105850;1251;74991;-58
2023/02/14 03:01:36;;;;;;;10.10;6.30;;;;;;;0.04;100.00;99787.09;106207;1254;67909;-60
2023/02/14 03:06:54;;;;;;;8.40;5.80;;;;;;;0.04;100.00;99774.46;106021;1254;61533;-55
2023/02/14 03:09:25;;;;;;;;;;;;;;;0.03;100.00;99770.54;106142;1251;62345;-56
2023/02/14 03:12:23;;;;;;;8.10;4.90;;;;;;;0.03;100.00;99768.89;106022;1255;75262;-56
2023/02/14 03:15:17;;;;;;;8.00;4.80;;;;;;;0.02;100.00;99764.53;106229;1251;67600;-61
2023/02/14 03:18:02;;;;;;;8.20;5.20;;;;;;;0.03;100.00;99762.94;105727;1256;74182;-57
2023/02/14 03:20:50;;;;;;;8.20;5.20;;;;;;;0.02;100.00;99766.71;105936;1256;61151;-55
2023/02/14 03:23:23;;;;;;;7.80;4.90;;;;;;;0.04;100.00;99772.40;105971;1256;60702;-56
2023/02/14 03:26:31;;;;;;;7.40;5.00;;;;;;;0.04;100.00;99772.53;105672;1251;74800;-57
2023/02/14 03:29:23;;;;;;;9.50;5.00;;;;;;;0.06;100.00;99771.73;106001;1251;68600;-57
2023/02/14 03:31:52;;;;;;;8.40;4.90;;;;;;;0.07;100.00;99771.96;105965;1251;74329;-56
2023/02/14 03:34:27;;;;;;;7.50;4.00;;;;;;;0.07;100.00;99771.92;105713;1251;61796;-56
2023/02/14 03:36:59;;;;;;;6.80;3.70;;;;;;;0.08;100.00;99772.55;106037;1251;60507;-58
2023/02/14 03:39:52;;;;;;;7.00;4.20;;;;;;;0.09;100.00;99772.79;105818;1251;75384;-58
2023/02/14 03:42:24;;;;;;;7.10;4.20;;;;;;;0.10;100.00;99770.85;105700;1251;68454;-57
2023/02/14 03:44:52;;;;;;;7.20;4.20;;;;;;;0.10;100.00;99763.46;105338;1253;73511;-62
2023/02/14 03:47:23;;;;;;;5.90;3.90;;;;;;;0.10;100.00;99764.02;105825;1251;61844;-56
2023/02/14 03:49:58;;;;;;;5.60;3.30;;;;;;;0.09;100.00;99760.36;105758;1254;60822;-58
2023/02/14 03:52:26;;;;;;;6.30;4.10;;;;;;;0.09;100.00;99761.89;105960;1251;75671;-63
2023/02/14 03:54:56;;;;;;;6.60;4.10;;;;;;;0.09;100.00;99759.50;105747;1257;68619;-58
2023/02/14 03:57:27;;;;;;;6.00;3.90;;;;;;;0.09;100.00;99759.30;105962;1251;74168;-58
2023/02/14 03:59:56;;;;;;;5.00;3.10;;;;;;;0.09;100.00;99753.19;105977;1255;60463;-59
2023/02/14 04:02:57;;;;;;;5.20;2.90;;;;;;;0.10;100.00;99756.27;109212;1251;60335;-61
2023/02/14 04:05:26;;;;;;;4.70;3.00;;;;;;;0.12;100.00;99753.27;109342;1250;74961;-58
2023/02/14 04:07:56;;;;;;;5.40;3.10;;;;;;;0.13;100.00;99749.96;109314;1251;66881;-58
2023/02/14 04:10:25;;;;;;;5.00;3.00;;;;;;;0.13;100.00;99750.48;109321;1250;73587;-58
2023/02/14 04:12:54;;;;;;;4.40;2.70;;;;;;;0.14;100.00;99745.56;109419;1250;59518;-57
2023/02/14 04:15:22;;;;;;;6.00;3.30;;;;;;;0.15;100.00;99748.89;109343;1250;60278;-57
2023/02/14 04:20:42;;;;;;;3.90;2.10;;;;;;;0.17;100.00;99747.15;109431;1250;66874;-58
2023/02/14 04:23:12;;;;;;;4.00;2.00;;;;;;;0.19;100.00;99749.40;109399;1251;72337;-62
2023/02/14 04:25:41;;;;;;;3.20;1.90;;;;;;;0.20;100.00;99749.67;109380;1251;60953;-58
2023/02/14 04:28:11;;;;;;;3.40;1.80;;;;;;;0.21;100.00;99745.17;109362;1250;61219;-62
2023/02/14 04:30:40;;;;;;;4.30;1.90;;;;;;;0.22;100.00;99743.70;109398;1251;74870;-58
2023/02/14 04:33:09;;;;;;;2.50;1.30;;;;;;;0.22;100.00;99738.69;109388;1250;67029;-62
2023/02/14 04:35:38;;;;;;;4.20;2.00;;;;;;;0.23;100.00;99738.33;109382;1251;73688;-59
2023/02/14 04:38:07;;;;;;;2.80;1.50;;;;;;;0.23;100.00;99736.89;109342;1251;60589;-58
2023/02/14 04:40:35;;;;;;;3.30;1.80;;;;;;;0.23;100.00;99735.23;109326;1250;60297;-58
2023/02/14 04:43:06;;;;;;;3.20;1.60;;;;;;;0.23;100.00;99732.52;109363;1250;73822;-58
2023/02/14 04:45:36;;;;;;;2.80;1.50;;;;;;;0.22;100.00;99729.19;109351;1250;68027;-63
2023/02/14 04:48:05;;;;;;;3.40;1.40;;;;;;;0.21;100.00;99728.36;109349;1251;73881;-57
2023/02/14 04:50:34;;;;;;;3.30;1.40;;;;;;;0.22;100.00;99727.81;109348;1251;61841;-57
2023/02/14 04:53:02;;;;;;;2.50;1.30;;;;;;;0.21;100.00;99726.17;109384;1250;61244;-58
2023/02/14 04:55:31;;;;;;;2.20;1.10;;;;;;;0.20;100.00;99725.36;109359;1251;74338;-60
2023/02/14 04:58:00;;;;;;;2.20;1.00;;;;;;;0.21;100.00;99719.35;109377;1251;66179;-56
2023/02/14 05:00:29;;;;;;;2.60;1.20;;;;;;;0.20;100.00;99722.28;109416;1251;72615;-57
2023/02/14 05:02:57;;;;;;;2.50;1.00;;;;;;;0.21;100.00;99728.09;109411;1250;62076;-56
2023/02/14 05:05:26;;;;;;;1.80;0.90;;;;;;;0.20;100.00;99726.61;109325;1250;60089;-58
2023/02/14 05:07:55;;;;;;;2.30;0.90;;;;;;;0.21;100.00;99720.17;109196;1251;249740;-56
2023/02/14 05:10:23;;;;;;;2.50;0.80;;;;;;;0.22;100.00;99722.48;109410;1251;67108;-57
2023/02/14 05:12:51;;;;;;;2.10;1.00;;;;;;;0.22;100.00;99724.89;109338;1251;72601;-61
2023/02/14 05:15:20;;;;;;;2.40;1.00;;;;;;;0.22;100.00;99725.55;109423;1251;61156;-57
2023/02/14 05:17:49;;;;;;;1.80;0.70;;;;;;;0.23;100.00;99723.97;109441;1250;60232;-57
2023/02/14 05:20:18;;;;;;;1.80;0.90;;;;;;;0.23;100.00;99724.27;109433;1250;73824;-56
2023/02/14 05:22:46;;;;;;;2.40;0.80;;;;;;;0.25;100.00;99725.34;109416;1250;67335;-56
2023/02/14 05:25:15;;;;;;;1.60;0.70;;;;;;;0.26;100.00;99719.98;109341;1250;73042;-56
2023/02/14 05:27:44;;;;;;;2.10;0.80;;;;;;;0.28;100.00;99726.95;109331;1251;59783;-57
2023/02/14 05:30:12;;;;;;;2.30;0.90;;;;;;;0.29;100.00;99724.63;109412;1251;61342;-57
2023/02/14 05:32:42;;;;;;;2.30;1.10;;;;;;;0.32;100.00;99724.96;109397;1250;72767;-56
2023/02/14 05:35:10;;;;;;;2.10;0.80;;;;;;;0.33;100.00;99720.73;109378;1250;68132;-57
2023/02/14 05:37:38;;;;;;;1.90;0.80;;;;;;;0.34;100.00;99715.55;109327;1251;72584;-57
2023/02/14 05:40:08;;;;;;;1.60;0.70;;;;;;;0.34;100.00;99725.10;109369;1251;62170;-56
2023/02/14 05:42:36;;;;;;;2.50;0.80;;;;;;;0.37;100.00;99724.02;109471;1251;61376;-56
2023/02/14 05:45:06;;;;;;;2.00;1.00;;;;;;;0.40;100.00;99722.51;109390;1251;73852;-57
2023/02/14 05:47:34;;;;;;;1.60;0.70;;;;;;;0.42;100.00;99721.31;109343;1251;67789;-57
2023/02/14 05:50:03;;;;;;;1.40;0.50;;;;;;;0.45;100.00;99720.39;109412;1251;73641;-56
2023/02/14 05:52:31;;;;;;;1.80;0.80;;;;;;;0.47;100.00;99721.27;109322;1251;61471;-56
2023/02/14 05:55:00;;;;;;;2.20;0.70;;;;;;;0.51;100.00;99728.29;109359;1251;61422;-62
2023/02/14 05:57:29;;;;;;;1.20;0.70;;;;;;;0.58;100.00;99721.17;109390;1251;74847;-58
2023/02/14 05:59:57;;;;;;;1.30;0.50;;;;;;;0.68;100.00;99711.23;109395;1250;68248;-56
2023/02/14 06:02:26;;;;;;;1.50;0.70;;;;;;;0.74;100.00;99708.30;109375;1251;72651;-56
2023/02/14 06:04:55;;;;;;;1.60;0.70;;;;;;;0.76;100.00;99710.59;109357;1250;60815;-59
2023/02/14 06:07:24;;;;;;;1.30;0.50;;;;;;;0.76;100.00;99705.59;109416;1251;59941;-57
2023/02/14 06:09:53;;;;;;;1.50;0.60;;;;;;;0.78;100.00;99708.65;109367;1251;74945;-61
2023/02/14 06:12:21;;;;;;;1.70;0.70;;;;;;;0.82;100.00;99709.87;109448;1250;67789;-56
2023/02/14 06:14:51;;;;;;;1.80;0.80;;;;;;;0.86;100.00;99708.30;109355;1250;72954;-59
2023/02/14 06:17:20;;;;;;;1.20;0.50;;;;;;;0.90;100.00;99702.62;109390;1251;60874;-57
2023/02/14 06:19:48;;;;;;;2.50;0.80;;;;;;;0.95;100.00;99702.83;109332;1251;61238;-57
2023/02/14 06:22:17;;;;;;;1.80;0.70;;;;;;;1.00;100.00;99701.59;109395;1251;74495;-57
2023/02/14 06:24:47;;;;;;;1.90;0.90;;;;;;;1.04;100.00;99701.91;109372;1251;67531;-62
2023/02/14 06:27:16;;;;;;;1.60;0.70;;;;;;;1.08;100.00;99697.80;109368;1250;72609;-57
2023/02/14 06:29:45;;;;;;;2.80;1.00;;;;;;;1.10;100.00;99698.47;109367;1250;62125;-60
2023/02/14 06:32:13;;;;;;;1.60;0.90;;;;;;;1.11;100.00;99693.75;109388;1251;60238;-57
2023/02/14 06:34:42;;;;;;;2.60;1.20;;;;;;;1.13;100.00;99688.77;109434;1251;74873;-62
2023/02/14 06:37:10;;;;;;;2.80;1.50;;;;;;;1.17;100.00;99685.64;109426;1250;67860;-57
2023/02/14 06:39:39;;;;;;;2.30;1.00;;;;;;;1.22;100.00;99682.17;109400;1250;72574;-56
2023/02/14 06:42:08;;;;;;;1.80;0.80;;;;;;;1.31;100.00;99681.92;109339;1250;63358;-57
2023/02/14 06:44:36;;;;;;;1.30;0.50;;;;;;;1.41;100.00;99682.30;109343;1251;60304;-60
2023/02/14 06:47:05;;;;;;;1.20;0.50;;;;;;;1.53;100.00;99684.69;109392;1251;73890;-57
2023/02/14 06:49:33;;;;;;;1.10;0.50;;;;;;;1.64;100.00;99677.83;109445;1251;68043;-57
2023/02/14 06:52:03;;;;;;;2.00;0.90;;;;;;;1.79;100.00;99677.55;109390;1250;72658;-61
2023/02/14 06:54:33;;;;;;;2.10;1.10;;;;;;;1.98;100.00;99678.55;109305;1253;61799;-57
2023/02/14 06:57:03;;;;;;;1.60;0.60;;;;;;;2.22;100.00;99674.21;109408;1251;60556;-56
2023/02/14 06:59:31;;;;;;;1.30;0.40;;;;;;;2.45;100.00;99671.36;109423;1251;74875;-57
2023/02/14 07:02:00;;;;;;;1.70;0.60;;;;;;;2.64;100.00;99674.33;109395;1251;68002;-58
2023/02/14 07:04:29;;;;;;;1.30;0.50;;;;;;;2.77;100.00;99670.61;109335;1250;73540;-60
2023/02/14 07:06:57;;;;;;;1.30;0.40;;;;;;;2.81;100.00;99670.05;109375;1250;62081;-57
2023/02/14 07:09:26;;;;;;;1.40;0.60;;;;;;;2.82;100.00;99669.60;109387;1251;59962;-57
2023/02/14 07:11:54;;;;;;;1.20;0.50;;;;;;;2.79;100.00;99672.40;109453;1251;74798;-57
2023/02/14 07:14:28;;;;;;;2.00;0.40;;;;;;;2.75;100.00;99670.11;109392;1251;67089;-58
2023/02/14 07:16:56;;;;;;;1.00;0.40;;;;;;;2.69;100.00;99663.44;109408;1250;73471;-57
2023/02/14 07:19:25;;;;;;;0.60;0.30;;;;;;;2.62;100.00;99657.55;109450;1251;61183;-57
2023/02/14 07:21:53;;;;;;;1.00;0.30;;;;;;;2.55;100.00;99657.19;109418;1250;60313;-57
2023/02/14 07:24:21;;;;;;;0.60;0.30;;;;;;;2.52;100.00;99655.48;109355;1250;74734;-58
2023/02/14 07:26:50;;;;;;;0.60;0.20;;;;;;;2.55;100.00;99654.85;109407;1251;68147;-57
2023/02/14 07:29:19;;;;;;;1.10;0.30;;;;;;;2.54;100.00;99653.38;109390;1250;73644;-57
2023/02/14 07:31:47;;;;;;;0.90;0.30;;;;;;;2.52;100.00;99650.98;109400;1250;59180;-58
2023/02/14 07:34:15;;;;;;;1.20;0.50;;;;;;;2.50;100.00;99653.23;109333;1250;61334;-59
2023/02/14 07:36:44;;;;;;;1.30;0.50;;;;;;;2.50;100.00;99653.95;109405;1253;73620;-59
2023/02/14 07:39:12;;;;;;;1.70;0.80;;;;;;;2.51;100.00;99654.14;109445;1251;66414;-58
2023/02/14 07:41:41;;;;;;;2.10;0.80;;;;;;;2.53;100.00;99653.48;109433;1250;72607;-57
2023/02/14 07:44:10;;;;;;;1.50;0.70;;;;;;;2.54;100.00;99658.16;109381;1251;60582;-59
2023/02/14 07:46:38;;;;;;;1.40;0.70;;;;;;;2.52;100.00;99659.77;109348;1250;61014;-57
2023/02/14 07:49:07;;;;;;;1.30;0.50;;;;;;;2.46;100.00;99657.39;109449;1251;74734;-57
2023/02/14 07:51:36;;;;;;;1.10;0.50;;;;;;;2.43;100.00;99652.90;109426;1251;68409;-57
2023/02/14 07:54:04;;;;;;;1.30;0.60;;;;;;;2.45;100.00;99650.50;109379;1250;72676;-58
2023/02/14 07:56:33;;;;;;;1.70;0.70;;;;;;;2.49;100.00;99653.02;109341;1251;60314;-59
2023/02/14 07:59:01;;;;;;;1.60;0.70;;;;;;;2.55;100.00;99653.11;109446;1250;60291;-57
2023/02/14 08:01:31;;;;;;;2.20;0.50;;;;;;;2.63;100.00;99653.00;109429;1251;73840;-57
2023/02/14 08:04:00;;;;;;;1.10;0.50;;;;;;;2.67;100.00;99657.45;109454;1251;67973;-57
2023/02/14 08:06:28;;;;;;;1.70;0.70;;;;;;;2.75;100.00;99654.48;109341;1251;74055;-58
2023/02/14 08:08:57;;;;;;;2.70;1.10;;;;;;;2.88;100.00;99649.71;109405;1251;60891;-57
2023/02/14 08:14:12;;;;;;;1.60;0.70;;;;;;;3.34;100.00;99658.10;109313;1251;74724;-59
2023/02/14 08:16:41;;;;;;;2.30;1.00;;;;;;;3.69;100.00;99653.31;109436;1250;67158;-58
2023/02/14 08:19:09;;;;;;;1.80;0.90;;;;;;;4.06;100.00;99650.25;109399;1250;72362;-57
2023/02/14 08:21:38;;;;;;;1.50;0.70;;;;;;;4.44;100.00;99646.53;109355;1250;59586;-58
2023/02/14 08:24:06;;;;;;;1.80;1.00;;;;;;;4.91;100.00;99646.80;109415;1250;59994;-59
2023/02/14 08:26:35;;;;;;;1.80;0.80;;;;;;;5.59;100.00;99643.14;109357;1251;74930;-58
2023/02/14 08:29:04;;;;;;;1.70;0.70;;;;;;;6.30;100.00;99636.92;109450;1251;68055;-58
2023/02/14 08:31:32;;;;;;;1.20;0.60;;;;;;;6.87;100.00;99627.41;109391;1251;73623;-58
2023/02/14 08:34:04;;;;;;;3.90;1.70;;;;;;;7.12;100.00;99618.27;109352;1250;60287;-58
2023/02/14 08:36:34;;;;;;;2.10;1.00;;;;;;;6.97;100.00;99618.14;109406;1251;60061;-59
2023/02/14 08:39:03;;;;;;;2.30;1.20;;;;;;;6.83;100.00;99614.23;109426;1250;74762;-58
2023/02/14 08:41:31;;;;;;;2.00;1.10;;;;;;;6.69;100.00;99613.95;109405;1251;67779;-59
2023/02/14 08:44:00;;;;;;;3.40;1.60;;;;;;;6.51;100.00;99618.55;109446;1250;73196;-58
2023/02/14 08:46:29;;;;;;;3.60;1.50;;;;;;;6.39;100.00;99619.48;109347;1251;60576;-59
2023/02/14 08:48:58;;;;;;;3.00;1.30;;;;;;;6.40;100.00;99620.83;109455;1251;61079;-59
2023/02/14 08:51:27;;;;;;;2.80;1.60;;;;;;;6.43;100.00;99622.71;109393;1250;74618;-59
2023/02/14 08:53:56;;;;;;;3.00;1.70;;;;;;;6.34;100.00;99621.86;109376;1250;68466;-59
2023/02/14 08:56:25;;;;;;;2.90;1.50;;;;;;;6.10;100.00;99622.84;109331;1251;73623;-60
2023/02/14 08:58:53;;;;;;;3.00;1.40;;;;;;;5.86;100.00;99620.23;109403;1251;60960;-58
2023/02/14 09:01:21;;;;;;;3.30;1.70;;;;;;;5.85;100.00;99622.11;109432;1251;60301;-60
2023/02/14 09:03:52;;;;;;;2.30;1.20;;;;;;;6.23;100.00;99620.38;109410;1251;73697;-59
2023/02/14 09:06:21;;;;;;;2.30;1.00;;;;;;;6.82;100.00;99613.21;109389;1251;68034;-60
2023/02/14 09:08:50;;;;;;;2.40;1.40;;;;;;;7.43;100.00;99613.95;109412;1251;72863;-60
2023/02/14 09:11:20;;;;;;;2.70;1.20;;;;;;;7.91;100.00;99612.66;109363;1251;61360;-62
2023/02/14 09:13:51;;;;;;;3.90;1.80;;;;;;;8.26;100.00;99609.02;109426;1251;61234;-60
2023/02/14 09:16:21;;;;;;;3.20;1.20;;;;;;;8.29;100.00;99605.46;109362;1251;73678;-64
2023/02/14 09:18:50;;;;;;;2.70;1.40;;;;;;;8.08;100.00;99607.66;109460;1250;66562;-62
2023/02/14 09:21:20;;;;;;;4.20;2.00;;;;;;;7.67;100.00;99608.21;109253;1251;73685;-63
2023/02/14 09:24:08;;;;;;;4.20;1.30;;;;;;;7.31;100.00;99610.15;109378;1250;62604;-63
2023/02/14 09:26:39;;;;;;;2.50;1.40;;;;;;;7.14;100.00;99613.84;109403;1252;60292;-65
2023/02/14 09:29:10;;;;;;;3.00;1.40;;;;;;;7.00;100.00;99611.44;109436;1251;75091;-62
2023/02/14 09:31:38;;;;;;;4.90;2.40;;;;;;;6.86;100.00;99608.73;109421;1251;67183;-62
2023/02/14 09:36:56;;;;;;;3.90;2.00;;;;;;;6.49;100.00;99606.05;109407;1251;59863;-62
2023/02/14 09:39:24;;;;;;;3.30;1.90;;;;;;;6.42;100.00;99607.20;109467;1251;61373;-64
2023/02/14 09:41:55;;;;;;;3.50;1.40;;;;;;;6.43;100.00;99610.09;109428;1251;73239;-62
2023/02/14 09:44:39;;;;;;;9.20;5.30;;;;;;;6.48;100.00;99608.92;109359;1250;67888;-65
2023/02/14 09:47:16;;;;;;;18.90;10.00;;;;;;;6.37;100.00;99608.13;109235;1251;73661;-65
2023/02/14 09:49:45;;;;;;;7.60;3.80;;;;;;;6.19;100.00;99602.71;109324;1251;59275;-61
2023/02/14 09:52:15;;;;;;;4.60;1.90;;;;;;;6.08;100.00;99601.09;109304;1251;62588;-62
2023/02/14 09:54:46;;;;;;;5.90;2.70;;;;;;;5.88;100.00;99600.05;109416;1250;72806;-63
2023/02/14 09:57:23;;;;;;;5.00;1.90;;;;;;;5.56;100.00;99596.84;109313;1251;68270;-60
2023/02/14 10:00:04;;;;;;;5.30;2.30;;;;;;;5.37;100.00;99596.64;109296;1250;72636;-62
2023/02/14 10:02:39;;;;;;;5.30;1.90;;;;;;;5.47;100.00;99595.55;109402;1251;60792;-63
2023/02/14 10:05:27;;;;;;;4.30;1.90;;;;;;;5.73;100.00;99595.00;109483;1251;60296;-63
2023/02/14 10:08:04;;;;;;;4.80;1.60;;;;;;;6.02;100.00;99589.34;109444;1250;73268;-62
2023/02/14 10:10:36;;;;;;;8.70;4.70;;;;;;;6.20;100.00;99594.22;109437;1251;67666;-61
2023/02/14 10:13:25;;;;;;;12.50;6.60;;;;;;;6.11;100.00;99594.93;109392;1251;73999;-61
2023/02/14 10:16:31;;;;;;;10.60;4.20;;;;;;;5.80;100.00;99603.48;109200;1251;59510;-61
2023/02/14 10:19:27;;;;;;;6.90;3.10;;;;;;;5.33;100.00;99605.04;109308;1250;61340;-63
2023/02/14 10:22:07;;;;;;;5.00;2.60;;;;;;;4.84;100.00;99610.76;109354;1251;74882;-59
2023/02/14 10:24:46;;;;;;;5.50;2.50;;;;;;;4.63;100.00;99614.41;109436;1252;68095;-60
2023/02/14 10:27:41;;;;;;;5.80;2.10;;;;;;;4.72;100.00;99619.27;109346;1251;73234;-60
2023/02/14 10:30:17;;;;;;;6.00;2.20;;;;;;;4.98;100.00;99613.20;109402;1251;61380;-63
2023/02/14 10:33:18;;;;;;;4.50;2.10;;;;;;;5.30;100.00;99612.05;109431;1251;60200;-62
2023/02/14 10:35:51;;;;;;;5.70;3.30;;;;;;;5.61;100.00;99611.95;109333;1251;72797;-61
2023/02/14 10:38:39;;;;;;;7.30;3.70;;;;;;;5.69;100.00;99605.08;109403;1250;68865;-60
2023/02/14 10:41:17;;;;;;;4.00;1.90;;;;;;;5.60;100.00;99601.19;109441;1251;74006;-61
2023/02/14 10:44:23;;;;;;;10.70;4.00;;;;;;;5.43;100.00;99603.87;109439;1251;60592;-60
2023/02/14 10:47:13;;;;;;;6.30;1.70;;;;;;;5.23;100.00;99613.58;109348;1250;61578;-62
2023/02/14 10:50:05;;;;;;;3.30;1.20;;;;;;;5.20;100.00;99619.16;109385;1252;73666;-61
2023/02/14 10:52:36;;;;;;;4.40;2.30;;;;;;;5.17;100.00;99617.92;109485;1250;66146;-61
2023/02/14 10:55:14;;;;;;;5.40;1.90;;;;;;;5.11;100.00;99618.83;109362;1251;72627;-60
2023/02/14 10:57:59;;;;;;;7.80;2.40;;;;;;;5.02;100.00;99617.20;109281;1250;59850;-62
2023/02/14 11:00:31;;;;;;;7.80;3.40;;;;;;;4.86;100.00;99614.66;109304;1251;61602;-61
2023/02/14 11:03:04;;;;;;;9.50;4.40;;;;;;;4.64;100.00;99612.42;109346;1251;74584;-60
2023/02/14 11:05:38;;;;;;;12.10;6.40;;;;;;;4.40;100.00;99614.30;109413;1250;67714;-64
2023/02/14 11:08:25;;;;;;;11.50;4.90;;;;;;;4.20;100.00;99606.35;109289;1250;72688;-61
2023/02/14 11:11:02;;;;;;;8.50;3.40;;;;;;;4.24;100.00;99601.20;109430;1250;60336;-64
2023/02/14 11:13:34;;;;;;;10.50;3.90;;;;;;;4.52;100.00;99594.98;109377;1251;61832;-60
2023/02/14 11:16:10;;;;;;;3.20;1.10;;;;;;;4.98;100.00;99588.39;109441;1251;74854;-60
2023/02/14 11:18:39;;;;;;;9.70;3.10;;;;;;;5.40;100.00;99588.04;109381;1251;67415;-58
2023/02/14 11:21:10;;;;;;;5.80;2.10;;;;;;;5.57;100.00;99592.86;109406;1251;73609;-58
2023/02/14 11:23:48;;;;;;;3.60;2.10;;;;;;;5.55;100.00;99590.67;109309;1251;60660;-59
2023/02/14 11:26:24;;;;;;;7.20;3.10;;;;;;;5.48;100.00;99593.73;109506;1250;61102;-58
2023/02/14 11:28:55;;;;;;;5.80;2.60;;;;;;;5.39;100.00;99594.15;109386;1250;74611;-59
2023/02/14 11:31:28;;;;;;;10.90;5.80;;;;;;;5.28;100.00;99595.52;109358;1251;67008;-58
2023/02/14 11:33:57;;;;;;;5.20;2.00;;;;;;;5.07;100.00;99600.63;109361;1251;72580;-58
2023/02/14 11:36:26;;;;;;;7.70;2.80;;;;;;;4.86;100.00;99598.59;109246;1251;59226;-59
2023/02/14 11:39:16;;;;;;;5.60;2.40;;;;;;;4.73;100.00;99599.13;109431;1251;60473;-59
2023/02/14 11:41:48;;;;;;;5.50;2.30;;;;;;;4.64;100.00;99602.48;109303;1251;75035;-58
2023/02/14 11:44:21;;;;;;;8.00;3.00;;;;;;;4.56;100.00;99602.80;109356;1251;67177;-58
2023/02/14 11:46:50;;;;;;;;;;;;;;;4.51;100.00;99605.20;109422;1251;73628;-62
2023/02/14 11:49:26;;;;;;;6.30;2.20;;;;;;;4.61;100.00;99599.16;109346;1251;62015;-58
2023/02/14 11:52:14;;;;;;;4.60;1.50;;;;;;;4.84;100.00;99594.35;109418;1251;60261;-62
2023/02/14 11:54:47;;;;;;;4.40;2.10;;;;;;;5.08;100.00;99593.36;109239;1251;75195;-57
2023/02/14 11:57:36;;;;;;;5.80;2.50;;;;;;;5.23;100.00;99594.02;109386;1251;67591;-58
2023/02/14 12:00:15;;;;;;;9.40;4.40;;;;;;;5.18;100.00;99594.35;109419;1250;73994;-62
2023/02/14 12:02:47;;;;;;;15.80;6.60;;;;;;;4.99;100.00;99598.05;109373;1251;60619;-58
2023/02/14 12:05:47;;;;;;;10.10;3.70;;;;;;;4.85;100.00;99603.91;109402;1251;61205;-58
2023/02/14 12:08:15;;;;;;;5.70;1.80;;;;;;;4.71;100.00;99605.07;109446;1251;74403;-57